York, Pennsylvania
Current Conditions -  °F | °C
As of 4:53 PM on Monday 26 Jan 2015 (Local Time) from KTHV Reporting Station
Overcast Overcast  
Wind Chill: 16°   Ceiling: 1700
Heat Index: 24°   Visibility: 9mi
Dew Point: 20°   Wind: 7mph
Humidity: 84%   Direction: 30°NNE
Pressure: 29.75"   Gusts: NA
Location:  39.96°N, 76.72°W
Report Text: KTHV 262153Z AUTO 03006KT 9SM BKN017 OVC022 M04/M07 A2975 RMK AO2 SNE14 SLP084 P0000 T10441067
Loading
Personal Weather Stations






























Interactive Weather Map New forecast layout! Learn more

10-Day Weather Forecast

Advertisements
Track Severe Weather on mobile